createdAt,value
2018-12-08T00:00:31.962Z,4.67
2018-12-08T00:03:12.325Z,4.63
2018-12-08T00:05:51.456Z,4.90
2018-12-08T00:08:29.203Z,8.37
2018-12-08T00:11:05.771Z,11.97
2018-12-08T00:13:43.902Z,10.27
2018-12-08T00:16:23.909Z,5.57
2018-12-08T00:19:00.135Z,4.67
2018-12-08T00:21:37.198Z,4.53
2018-12-08T00:24:14.871Z,4.30
2018-12-08T00:26:53.126Z,4.60
2018-12-08T00:29:32.398Z,4.40
2018-12-08T00:32:08.435Z,3.77
2018-12-08T00:34:45.354Z,4.10
2018-12-08T00:37:23.873Z,4.03
2018-12-08T00:40:00.683Z,3.87
2018-12-08T00:42:36.252Z,3.90
2018-12-08T00:45:12.288Z,3.40
2018-12-08T00:47:50.138Z,3.27
2018-12-08T00:50:30.723Z,3.20
2018-12-08T00:53:10.060Z,2.93
2018-12-08T00:55:48.574Z,3.03
2018-12-08T00:58:29.092Z,3.20
2018-12-08T01:01:07.355Z,2.47
2018-12-08T01:03:43.748Z,2.90
2018-12-08T01:06:21.931Z,3.10
2018-12-08T01:09:00.719Z,3.77
2018-12-08T01:11:37.647Z,3.10
2018-12-08T01:14:14.147Z,2.87
2018-12-08T01:16:49.357Z,3.20
2018-12-08T01:19:29.179Z,3.10
2018-12-08T01:22:06.644Z,3.17
2018-12-08T01:24:44.194Z,3.23
2018-12-08T01:27:21.945Z,2.77
2018-12-08T01:29:58.537Z,2.83
2018-12-08T01:32:38.129Z,2.73
2018-12-08T01:35:14.210Z,2.70
2018-12-08T01:37:52.734Z,3.07
2018-12-08T01:40:29.422Z,2.60
2018-12-08T01:43:06.375Z,2.80
2018-12-08T01:45:43.552Z,2.73
2018-12-08T01:48:22.608Z,2.67
2018-12-08T01:50:59.164Z,2.87
2018-12-08T01:53:37.086Z,2.87
2018-12-08T01:56:13.909Z,3.00
2018-12-08T01:58:53.020Z,3.07
2018-12-08T02:01:30.217Z,2.80
2018-12-08T02:04:07.753Z,2.90
2018-12-08T02:06:44.277Z,3.33
2018-12-08T02:09:20.861Z,2.80
2018-12-08T02:12:01.096Z,2.80
2018-12-08T02:14:33.386Z,2.53
2018-12-08T02:17:05.652Z,2.70
2018-12-08T02:19:39.743Z,2.30
2018-12-08T02:22:17.689Z,2.50
2018-12-08T02:24:52.686Z,2.60
2018-12-08T02:27:31.393Z,2.70
2018-12-08T02:30:07.611Z,2.57
2018-12-08T02:32:43.600Z,2.47
2018-12-08T02:35:23.339Z,2.50
2018-12-08T02:38:02.507Z,2.00
2018-12-08T02:40:41.711Z,2.30
2018-12-08T02:43:21.299Z,2.00
2018-12-08T02:45:58.806Z,1.93
2018-12-08T02:48:34.956Z,1.33
2018-12-08T02:51:13.362Z,1.37
2018-12-08T02:53:51.499Z,1.37
2018-12-08T02:56:29.817Z,1.20
2018-12-08T02:59:06.510Z,1.30
2018-12-08T03:01:42.166Z,0.90
2018-12-08T03:04:20.903Z,0.93
2018-12-08T03:06:56.935Z,1.10
2018-12-08T03:09:34.198Z,0.73
2018-12-08T03:12:12.960Z,0.90
2018-12-08T03:14:50.130Z,0.70
2018-12-08T03:17:29.966Z,0.80
2018-12-08T03:20:07.049Z,0.70
2018-12-08T03:22:44.092Z,0.70
2018-12-08T03:25:23.409Z,0.60
2018-12-08T03:28:01.700Z,0.90
2018-12-08T03:30:45.405Z,0.60
2018-12-08T03:33:23.283Z,0.70
2018-12-08T03:36:00.786Z,0.57
2018-12-08T03:38:37.263Z,0.70
2018-12-08T03:41:14.583Z,0.50
2018-12-08T03:43:51.049Z,0.77
2018-12-08T03:46:26.623Z,0.47
2018-12-08T03:49:04.503Z,0.67
2018-12-08T03:51:41.954Z,0.60
2018-12-08T03:54:23.973Z,0.80
2018-12-08T03:57:00.336Z,0.50
2018-12-08T03:59:36.637Z,0.43
2018-12-08T04:02:14.835Z,0.70
2018-12-08T04:04:54.720Z,0.60
2018-12-08T04:07:34.251Z,0.67
2018-12-08T04:10:11.281Z,0.70
2018-12-08T04:12:49.626Z,0.60
2018-12-08T04:15:32.017Z,0.47
2018-12-08T04:18:06.813Z,0.40
2018-12-08T04:20:44.284Z,0.40
2018-12-08T04:23:20.242Z,0.40
2018-12-08T04:25:58.048Z,0.50
2018-12-08T04:28:33.836Z,0.40
2018-12-08T04:31:12.008Z,0.40
2018-12-08T04:33:49.645Z,0.40
2018-12-08T04:36:28.263Z,0.30
2018-12-08T04:39:05.781Z,0.40
2018-12-08T04:41:44.049Z,0.30
2018-12-08T04:44:23.192Z,0.50
2018-12-08T04:47:01.226Z,0.40
2018-12-08T04:49:37.101Z,0.30
2018-12-08T04:52:14.529Z,0.30
2018-12-08T04:54:43.277Z,0.40
2018-12-08T04:57:21.005Z,0.40
2018-12-08T04:59:59.530Z,0.30
2018-12-08T05:02:37.588Z,0.40
2018-12-08T05:05:14.206Z,0.30
2018-12-08T05:07:50.523Z,0.40
2018-12-08T05:10:31.597Z,0.50
2018-12-08T05:13:08.031Z,0.30
2018-12-08T05:15:43.246Z,0.40
2018-12-08T05:18:20.038Z,0.40
2018-12-08T05:20:57.543Z,0.57
2018-12-08T05:23:35.054Z,0.70
2018-12-08T05:26:11.831Z,0.70
2018-12-08T05:28:49.843Z,0.70
2018-12-08T05:31:27.723Z,1.20
2018-12-08T05:34:05.066Z,0.80
2018-12-08T05:36:40.943Z,0.80
2018-12-08T05:39:19.331Z,0.90
2018-12-08T05:41:58.348Z,0.73
2018-12-08T05:44:33.700Z,0.80
2018-12-08T05:47:11.660Z,1.10
2018-12-08T05:49:50.718Z,1.00
2018-12-08T05:52:27.987Z,0.90
2018-12-08T05:55:02.601Z,0.90
2018-12-08T05:57:41.396Z,0.90
2018-12-08T06:00:20.542Z,0.77
2018-12-08T06:02:53.481Z,0.80
2018-12-08T06:05:30.433Z,0.80
2018-12-08T06:08:07.788Z,0.80
2018-12-08T06:10:44.934Z,0.67
2018-12-08T06:13:23.100Z,0.80
2018-12-08T06:15:59.111Z,0.60
2018-12-08T06:18:38.364Z,0.57
2018-12-08T06:21:15.336Z,0.67
2018-12-08T06:23:54.417Z,0.60
2018-12-08T06:26:32.042Z,0.30
2018-12-08T06:29:08.358Z,0.50
2018-12-08T06:31:45.013Z,0.40
2018-12-08T06:34:23.092Z,0.30
2018-12-08T06:37:02.116Z,0.40
2018-12-08T06:39:39.281Z,0.40
2018-12-08T06:42:19.325Z,0.43
2018-12-08T06:44:56.407Z,0.40
2018-12-08T06:47:34.883Z,0.37
2018-12-08T06:50:13.827Z,0.30
2018-12-08T06:52:51.146Z,0.37
2018-12-08T06:55:29.864Z,0.50
2018-12-08T06:58:07.032Z,0.20
2018-12-08T07:00:42.479Z,0.50
2018-12-08T07:03:23.995Z,0.40
2018-12-08T07:06:03.944Z,0.40
2018-12-08T07:08:43.100Z,0.40
2018-12-08T07:11:21.372Z,0.30
2018-12-08T07:13:57.679Z,0.47
2018-12-08T07:16:34.163Z,0.50
2018-12-08T07:19:11.360Z,0.40
2018-12-08T07:21:43.645Z,0.33
2018-12-08T07:24:21.255Z,0.30
2018-12-08T07:26:58.317Z,0.40
2018-12-08T07:29:34.403Z,0.40
2018-12-08T07:32:11.639Z,0.50
2018-12-08T07:34:51.418Z,0.50
2018-12-08T07:37:27.597Z,0.60
2018-12-08T07:40:04.957Z,0.60
2018-12-08T07:42:43.808Z,0.70
2018-12-08T07:45:22.355Z,0.80
2018-12-08T07:47:59.218Z,0.70
2018-12-08T07:50:37.051Z,0.70
2018-12-08T07:53:15.268Z,0.80
2018-12-08T07:55:50.640Z,1.03
2018-12-08T07:58:28.510Z,0.73
2018-12-08T08:01:05.568Z,1.00
2018-12-08T08:03:43.926Z,0.70
2018-12-08T08:06:23.816Z,1.00
2018-12-08T08:08:57.719Z,1.00
2018-12-08T08:11:31.670Z,0.97
2018-12-08T08:14:05.000Z,1.00
2018-12-08T08:16:42.648Z,1.10
2018-12-08T08:19:15.110Z,1.10
2018-12-08T08:21:49.199Z,1.20
2018-12-08T08:24:21.410Z,1.30
2018-12-08T08:26:55.474Z,1.50
2018-12-08T08:29:29.541Z,1.40
2018-12-08T08:32:06.393Z,1.23
2018-12-08T08:34:41.075Z,1.00
2018-12-08T08:37:18.962Z,1.20
2018-12-08T08:39:53.833Z,1.20
2018-12-08T08:42:31.617Z,0.70
2018-12-08T08:45:07.960Z,0.50
2018-12-08T08:47:41.919Z,0.40
2018-12-08T08:50:16.126Z,0.43
2018-12-08T08:52:51.767Z,0.50
2018-12-08T08:55:28.527Z,0.40
2018-12-08T08:58:03.293Z,0.50
2018-12-08T09:00:39.943Z,0.50
2018-12-08T09:03:17.305Z,0.40
2018-12-08T09:05:52.714Z,0.40
2018-12-08T09:08:29.390Z,0.60
2018-12-08T09:11:05.040Z,0.70
2018-12-08T09:13:40.317Z,0.50
2018-12-08T09:16:13.987Z,0.80
2018-12-08T09:18:46.550Z,0.70
2018-12-08T09:21:25.323Z,0.50
2018-12-08T09:24:03.120Z,0.50
2018-12-08T09:26:38.899Z,0.90
2018-12-08T09:29:14.966Z,0.70
2018-12-08T09:31:50.773Z,0.60
2018-12-08T09:34:27.385Z,0.70
2018-12-08T09:37:04.106Z,0.70
2018-12-08T09:39:40.145Z,0.80
2018-12-08T09:42:20.558Z,0.90
2018-12-08T09:44:51.360Z,1.00
2018-12-08T09:47:32.200Z,1.00
2018-12-08T09:50:06.610Z,0.90
2018-12-08T09:52:35.716Z,0.80
2018-12-08T09:55:11.228Z,0.70
2018-12-08T09:57:40.910Z,0.70
2018-12-08T10:00:14.005Z,0.80
2018-12-08T10:02:47.164Z,0.80
2018-12-08T10:05:24.207Z,0.60
2018-12-08T10:07:57.531Z,0.80
2018-12-08T10:10:28.904Z,0.80
2018-12-08T10:13:05.144Z,0.80
2018-12-08T10:15:40.353Z,0.90
2018-12-08T10:18:12.240Z,0.70
2018-12-08T10:20:48.311Z,0.83
2018-12-08T10:23:22.523Z,0.90
2018-12-08T10:25:58.594Z,0.77
2018-12-08T10:28:36.469Z,0.70
2018-12-08T10:31:16.364Z,0.57
2018-12-08T10:33:52.756Z,0.70
2018-12-08T10:36:31.977Z,0.60
2018-12-08T10:39:09.925Z,1.00
2018-12-08T10:41:47.094Z,0.60
2018-12-08T10:44:26.550Z,0.70
2018-12-08T10:47:03.893Z,0.70
2018-12-08T10:49:40.473Z,0.57
2018-12-08T10:52:17.523Z,0.63
2018-12-08T10:54:54.101Z,0.60
2018-12-08T10:57:35.308Z,0.80
2018-12-08T11:00:19.142Z,0.60
2018-12-08T11:02:53.526Z,0.60
2018-12-08T11:05:30.622Z,0.67
2018-12-08T11:08:08.251Z,1.00
2018-12-08T11:10:45.028Z,1.17
2018-12-08T11:13:22.147Z,0.70
2018-12-08T11:16:01.121Z,1.00
2018-12-08T11:18:42.509Z,0.70
2018-12-08T11:21:21.815Z,0.87
2018-12-08T11:24:03.129Z,0.63
2018-12-08T11:26:42.041Z,0.60
2018-12-08T11:29:19.234Z,0.73
2018-12-08T11:31:56.002Z,0.60
2018-12-08T11:34:32.747Z,0.70
2018-12-08T11:37:12.415Z,0.70
2018-12-08T11:39:49.750Z,2.43
2018-12-08T11:42:26.549Z,1.40
2018-12-08T11:45:06.900Z,0.73
2018-12-08T11:47:46.707Z,0.87
2018-12-08T11:50:22.332Z,1.07
2018-12-08T11:53:00.251Z,0.70
2018-12-08T11:55:39.649Z,0.70
2018-12-08T11:58:18.109Z,1.23
2018-12-08T12:00:58.142Z,1.00
2018-12-08T12:03:36.538Z,0.80
2018-12-08T12:06:13.790Z,1.00
2018-12-08T12:08:50.998Z,0.90
2018-12-08T12:11:31.007Z,1.10
2018-12-08T12:14:05.363Z,0.80
2018-12-08T12:16:43.038Z,0.90
2018-12-08T12:19:19.170Z,0.90
2018-12-08T12:21:54.901Z,0.90
2018-12-08T12:24:31.564Z,1.27
2018-12-08T12:27:11.719Z,0.90
2018-12-08T12:29:48.606Z,1.13
2018-12-08T12:32:25.518Z,0.80
2018-12-08T12:35:05.524Z,1.00
2018-12-08T12:37:44.757Z,1.10
2018-12-08T12:40:22.298Z,1.10
2018-12-08T12:43:00.964Z,0.80
2018-12-08T12:45:39.759Z,1.03
2018-12-08T12:48:17.269Z,1.23
2018-12-08T12:50:55.533Z,0.70
2018-12-08T12:53:32.965Z,0.87
2018-12-08T12:56:13.064Z,0.83
2018-12-08T12:58:51.029Z,1.00
2018-12-08T13:01:28.166Z,0.80
2018-12-08T13:04:04.923Z,0.90
2018-12-08T13:06:43.090Z,0.93
2018-12-08T13:09:20.552Z,1.10
2018-12-08T13:11:56.980Z,1.10
2018-12-08T13:14:32.567Z,1.10
2018-12-08T13:17:10.816Z,1.23
2018-12-08T13:19:50.683Z,1.33
2018-12-08T13:22:28.531Z,1.20
2018-12-08T13:25:09.924Z,1.37
2018-12-08T13:27:48.086Z,1.53
2018-12-08T13:30:27.091Z,1.43
2018-12-08T13:33:05.617Z,3.50
2018-12-08T13:36:03.671Z,1.53
2018-12-08T13:38:44.481Z,1.73
2018-12-08T13:41:21.938Z,1.63
2018-12-08T13:44:08.480Z,1.80
2018-12-08T13:46:47.204Z,1.83
2018-12-08T13:49:25.141Z,1.73
2018-12-08T13:52:04.472Z,1.70
2018-12-08T13:54:48.301Z,1.97
2018-12-08T13:57:26.171Z,1.97
2018-12-08T14:00:04.133Z,1.97
2018-12-08T14:02:42.426Z,1.97
2018-12-08T14:05:18.349Z,2.07
2018-12-08T14:07:56.176Z,1.87
2018-12-08T14:10:35.388Z,2.07
2018-12-08T14:13:09.051Z,1.90
2018-12-08T14:15:41.562Z,2.33
2018-12-08T14:18:20.186Z,2.07
2018-12-08T14:20:53.443Z,2.30
2018-12-08T14:23:28.347Z,2.30
2018-12-08T14:26:03.630Z,2.00
2018-12-08T14:28:38.562Z,2.17
2018-12-08T14:31:12.177Z,2.03
2018-12-08T14:33:45.551Z,2.10
2018-12-08T14:36:24.270Z,1.73
2018-12-08T14:38:58.958Z,2.00
2018-12-08T14:41:32.750Z,1.80
2018-12-08T14:44:05.747Z,1.80
2018-12-08T14:46:38.403Z,2.03
2018-12-08T14:49:13.998Z,1.93
2018-12-08T14:51:51.070Z,1.70
2018-12-08T14:54:23.435Z,2.10
2018-12-08T14:57:00.802Z,1.90
2018-12-08T14:59:34.051Z,1.60
2018-12-08T15:02:07.527Z,1.80
2018-12-08T15:04:41.492Z,1.70
2018-12-08T15:07:15.403Z,1.67
2018-12-08T15:09:50.988Z,1.70
2018-12-08T15:12:25.047Z,2.10
2018-12-08T15:14:58.364Z,1.83
2018-12-08T15:17:31.237Z,1.67
2018-12-08T15:20:01.467Z,1.40
2018-12-08T15:22:33.962Z,1.60
2018-12-08T15:25:11.067Z,1.60
2018-12-08T15:27:46.768Z,1.73
2018-12-08T15:30:23.624Z,1.83
2018-12-08T15:32:59.847Z,1.80
2018-12-08T15:35:38.287Z,1.60
2018-12-08T15:38:17.538Z,2.00
2018-12-08T15:40:49.372Z,1.93
2018-12-08T15:43:20.911Z,2.13
2018-12-08T15:45:56.346Z,2.20
2018-12-08T15:48:27.875Z,2.20
2018-12-08T15:51:00.694Z,1.80
2018-12-08T15:53:33.256Z,2.13
2018-12-08T15:56:05.130Z,2.37
2018-12-08T15:58:37.818Z,2.60
2018-12-08T16:01:10.416Z,2.33
2018-12-08T16:03:43.938Z,2.40
2018-12-08T16:06:18.223Z,1.90
2018-12-08T16:08:52.725Z,2.10
2018-12-08T16:11:30.323Z,2.47
2018-12-08T16:14:01.580Z,2.03
2018-12-08T16:16:39.122Z,2.63
2018-12-08T16:19:20.118Z,2.27
2018-12-08T16:21:56.380Z,2.80
2018-12-08T16:24:34.298Z,2.33
2018-12-08T16:27:12.218Z,2.23
2018-12-08T16:29:51.493Z,2.50
2018-12-08T16:32:29.684Z,2.80
2018-12-08T16:35:06.796Z,2.37
2018-12-08T16:37:42.633Z,2.30
2018-12-08T16:40:18.658Z,1.93
2018-12-08T16:42:52.859Z,2.30
2018-12-08T16:45:29.150Z,2.73
2018-12-08T16:48:07.818Z,2.00
2018-12-08T16:50:43.110Z,2.53
2018-12-08T16:53:23.220Z,2.33
2018-12-08T16:56:00.346Z,2.73
2018-12-08T16:58:40.531Z,2.13
2018-12-08T17:01:18.815Z,2.20
2018-12-08T17:03:57.122Z,2.13
2018-12-08T17:06:32.841Z,2.83
2018-12-08T17:09:11.814Z,2.20
2018-12-08T17:11:50.278Z,2.20
2018-12-08T17:14:27.922Z,2.23
2018-12-08T17:17:04.234Z,2.10
2018-12-08T17:19:44.392Z,1.90
2018-12-08T17:22:17.929Z,1.83
2018-12-08T17:24:55.927Z,2.00
2018-12-08T17:27:32.785Z,2.23
2018-12-08T17:30:11.480Z,2.03
2018-12-08T17:32:52.002Z,1.70
2018-12-08T17:35:31.444Z,1.87
2018-12-08T17:38:13.257Z,2.13
2018-12-08T17:40:51.538Z,2.03
2018-12-08T17:43:28.592Z,2.30
2018-12-08T17:46:07.486Z,2.17
2018-12-08T17:48:45.622Z,1.80
2018-12-08T17:51:19.037Z,2.00
2018-12-08T17:53:55.044Z,1.60
2018-12-08T17:56:26.182Z,2.00
2018-12-08T17:58:58.307Z,2.20
2018-12-08T18:01:31.779Z,1.90
2018-12-08T18:04:02.624Z,1.90
2018-12-08T18:06:37.190Z,2.17
2018-12-08T18:09:13.208Z,1.50
2018-12-08T18:11:47.720Z,1.80
2018-12-08T18:14:20.379Z,1.77
2018-12-08T18:16:54.746Z,1.80
2018-12-08T18:19:25.235Z,1.60
2018-12-08T18:21:58.814Z,1.50
2018-12-08T18:24:31.679Z,2.03
2018-12-08T18:27:06.014Z,1.50
2018-12-08T18:29:36.574Z,1.63
2018-12-08T18:32:08.053Z,1.50
2018-12-08T18:34:40.084Z,1.50
2018-12-08T18:37:08.920Z,1.27
2018-12-08T18:39:44.149Z,1.20
2018-12-08T18:42:16.016Z,1.43
2018-12-08T18:44:47.734Z,1.60
2018-12-08T18:47:19.950Z,1.57
2018-12-08T18:49:49.111Z,1.50
2018-12-08T18:52:22.957Z,1.50
2018-12-08T18:54:56.917Z,1.63
2018-12-08T18:57:30.420Z,1.40
2018-12-08T19:00:02.605Z,1.27
2018-12-08T19:02:34.834Z,1.47
2018-12-08T19:05:08.451Z,1.40
2018-12-08T19:07:40.930Z,1.20
2018-12-08T19:10:12.898Z,1.33
2018-12-08T19:12:46.125Z,1.07
2018-12-08T19:15:17.947Z,1.17
2018-12-08T19:17:50.995Z,1.10
2018-12-08T19:20:23.232Z,1.10
2018-12-08T19:22:53.954Z,1.50
2018-12-08T19:25:25.790Z,1.33
2018-12-08T19:27:58.768Z,1.47
2018-12-08T19:30:31.850Z,1.00
2018-12-08T19:33:05.973Z,1.40
2018-12-08T19:35:37.999Z,1.10
2018-12-08T19:38:09.106Z,1.10
2018-12-08T19:40:42.802Z,0.90
2018-12-08T19:43:20.591Z,1.10
2018-12-08T19:45:52.240Z,1.10
2018-12-08T19:48:24.693Z,0.67
2018-12-08T19:50:57.799Z,0.90
2018-12-08T19:53:29.536Z,1.00
2018-12-08T19:56:00.494Z,1.23
2018-12-08T19:58:33.840Z,0.80
2018-12-08T20:01:07.044Z,0.93
2018-12-08T20:03:39.192Z,0.70
2018-12-08T20:06:11.355Z,0.87
2018-12-08T20:08:43.951Z,0.80
2018-12-08T20:11:17.894Z,1.00
2018-12-08T20:13:49.217Z,0.73
2018-12-08T20:16:23.794Z,0.70
2018-12-08T20:18:55.127Z,0.80
2018-12-08T20:21:27.458Z,0.87
2018-12-08T20:23:58.077Z,0.87
2018-12-08T20:26:30.705Z,0.90
2018-12-08T20:29:02.029Z,0.80
2018-12-08T20:31:32.690Z,0.97
2018-12-08T20:34:06.122Z,0.80
2018-12-08T20:36:40.080Z,0.60
2018-12-08T20:39:13.730Z,0.37
2018-12-08T20:41:47.406Z,0.50
2018-12-08T20:44:21.833Z,0.57
2018-12-08T20:46:52.169Z,0.60
2018-12-08T20:49:27.285Z,0.30
2018-12-08T20:52:01.786Z,0.50
2018-12-08T20:54:36.176Z,0.40
2018-12-08T20:57:08.852Z,0.40
2018-12-08T20:59:42.300Z,0.60
2018-12-08T21:02:15.778Z,0.53
2018-12-08T21:04:45.072Z,0.40
2018-12-08T21:07:15.400Z,0.73
2018-12-08T21:09:45.055Z,0.50
2018-12-08T21:12:17.333Z,0.70
2018-12-08T21:14:49.958Z,0.77
2018-12-08T21:17:20.708Z,0.60
2018-12-08T21:19:57.018Z,0.60
2018-12-08T21:22:28.852Z,0.50
2018-12-08T21:24:58.904Z,0.80
2018-12-08T21:27:29.242Z,0.63
2018-12-08T21:29:59.637Z,0.90
2018-12-08T21:32:31.277Z,0.70
2018-12-08T21:35:02.198Z,0.80
2018-12-08T21:37:32.642Z,0.80
2018-12-08T21:40:06.140Z,1.20
2018-12-08T21:42:39.063Z,0.70
2018-12-08T21:45:08.748Z,1.00
2018-12-08T21:47:41.353Z,1.00
2018-12-08T21:50:15.230Z,1.30
2018-12-08T21:52:46.310Z,0.90
2018-12-08T21:55:20.097Z,1.00
2018-12-08T21:57:55.318Z,1.00
2018-12-08T22:00:28.281Z,1.00
2018-12-08T22:03:01.720Z,1.00
2018-12-08T22:05:32.657Z,1.20
2018-12-08T22:08:06.939Z,1.30
2018-12-08T22:10:39.994Z,1.40
2018-12-08T22:13:18.350Z,1.10
2018-12-08T22:15:50.305Z,1.20
2018-12-08T22:18:28.811Z,1.30
2018-12-08T22:21:08.013Z,1.33
2018-12-08T22:23:45.438Z,1.40
2018-12-08T22:26:24.989Z,1.23
2018-12-08T22:29:03.107Z,1.20
2018-12-08T22:31:43.274Z,1.60
2018-12-08T22:34:19.350Z,1.23
2018-12-08T22:36:57.942Z,1.30
2018-12-08T22:39:33.669Z,1.40
2018-12-08T22:42:10.808Z,1.47
2018-12-08T22:44:50.367Z,1.53
2018-12-08T22:47:24.056Z,1.87
2018-12-08T22:50:01.038Z,1.60
2018-12-08T22:52:38.646Z,1.77
2018-12-08T22:55:16.445Z,2.00
2018-12-08T22:57:52.027Z,2.17
2018-12-08T23:00:42.085Z,2.30
2018-12-08T23:03:21.028Z,2.33
2018-12-08T23:05:59.867Z,2.23
2018-12-08T23:08:37.708Z,2.67
2018-12-08T23:11:13.013Z,2.50
2018-12-08T23:13:48.747Z,2.40
2018-12-08T23:16:26.163Z,2.10
2018-12-08T23:19:02.928Z,2.07
2018-12-08T23:21:38.921Z,2.50
2018-12-08T23:24:15.350Z,2.20
2018-12-08T23:26:53.303Z,2.07
2018-12-08T23:29:32.411Z,2.20
2018-12-08T23:32:09.044Z,2.03
2018-12-08T23:34:45.797Z,1.80
2018-12-08T23:37:21.932Z,1.73
2018-12-08T23:39:59.421Z,1.87
2018-12-08T23:42:36.450Z,1.67
2018-12-08T23:45:12.224Z,1.97
2018-12-08T23:47:49.718Z,1.80
2018-12-08T23:50:29.299Z,1.50
2018-12-08T23:53:05.957Z,1.30
2018-12-08T23:55:44.555Z,1.30
2018-12-08T23:58:23.543Z,1.60
